49.5°F
Current conditions from King Hill
Updated every 5 minutes
 
  Saturday October 21, 2017

Observations for Westford

Westford

44° 37' 39"N, 73° 02' 29"W, Elevation 850 ft.
Eastern Time

Hourly observations for the last 72 hours

Date Time Temperature (°F) Humi-
dity

(%)
Wind
(mph)
Pressure Rain (in)
Air Dew 6 Hour 1 Hr 3 Hr 6 Hr Day
Alt
(in)
Sea
Level

(mb)
Max Min
21 08:00 49.1 37.8 51.3 46.5 65 SSW 1 G 7 30.19 1022.6 0.00
21 07:00 48.2 37.4 66 SW 0 G 8 30.18 1022.0 0.00
21 06:00 48.6 37.8 66 SW 2 G 8 30.17 1021.5 0.00
21 05:00 50.7 38.2 62 SW 1 G 6 30.16 1021.3 0.00
21 04:00 50.7 38.2 62 SSW 1 G 8 30.15 1021.1 0.00
21 03:00 50.8 39.5 65 SSW 0 G 2 30.15 1021.0 0.00
21 02:00 46.7 38.2 52.9 44.4 72 Calm 30.14 1020.7 0.00
21 01:00 50.1 39.2 66 WSW 0 G 4 30.13 1020.4 0.00
21 00:00 46.1 38.3 74 Calm 30.12 1020.0 0.00
20 23:00 45.1 38.3 77 Calm 30.11 1019.7 0.00
20 22:00 46.5 39.0 75 Calm 30.10 1019.4 0.00
20 21:00 46.9 39.1 74 Calm 30.09 1019.2 0.00
20 20:00 47.7 38.4 64.2 47.6 70 Calm 30.08 1018.8 0.00
20 19:00 48.8 38.3 67 Calm 30.08 1018.5 0.00
20 18:00 55.4 39.0 54 Calm 30.06 1018.0 0.00
20 17:00 62.5 39.1 42 NW 0 G 7 30.05 1017.6 0.00
20 16:00 63.1 38.4 40 N 1 G 10 30.05 1017.5 0.00
20 15:00 64.1 37.3 37 WNW 1 G 11 30.05 1017.5 0.00
20 14:00 61.9 38.0 62.3 46.7 41 WNW 5 G 14 30.04 1017.4 0.00
20 13:00 59.8 39.0 46 W 4 G 11 30.05 1017.5 0.00
20 12:00 58.2 38.6 48 WNW 10 G 21 30.06 1018.0 0.00
20 11:00 56.4 40.9 56 WNW 5 G 11 30.07 1018.3 0.00
20 10:00 54.1 41.4 62 WNW 3 G 11 30.06 1018.0 0.00
20 09:00 49.2 39.8 70 WNW 2 G 14 30.05 1017.6 0.00
20 08:00 46.7 38.9 55.3 45.2 74 WSW 1 G 7 30.02 1016.7 0.00
20 07:00 46.5 38.3 73 WSW 0 G 8 29.99 1015.7 0.00
20 06:00 46.7 38.5 73 WSW 0 G 8 29.98 1015.2 0.00
20 05:00 48.3 37.9 67 WSW 1 G 6 29.95 1014.3 0.00
20 04:00 49.1 37.8 65 WSW 0 G 7 29.94 1013.8 0.00
20 03:00 53.0 37.7 56 W 2 G 9 29.94 1014.0 0.00
20 02:00 55.3 38.5 63.0 55.3 53 WNW 1 G 10 29.94 1013.9 0.00
20 01:00 56.8 43.5 61 NW 3 G 9 29.92 1013.2 0.00
20 00:00 58.5 48.8 70 WNW 2 G 13 29.90 1012.6 0.00
19 23:00 58.8 49.0 70 W 1 G 9 29.89 1012.2 0.00
19 22:00 60.8 49.0 65 WSW 2 G 15 29.89 1012.2 0.00
19 21:00 62.2 47.3 58 W 6 G 15 29.88 1011.9 0.00
19 20:00 62.5 46.6 68.7 62.1 56 WSW 2 G 10 29.87 1011.5 0.00
19 19:00 62.9 45.5 53 WSW 3 G 13 29.86 1011.1 0.00
19 18:00 62.4 44.6 52 SW 1 G 4 29.83 1010.2 0.00
19 17:00 65.2 45.0 48 SW 4 G 15 29.82 1009.7 0.00
19 16:00 66.9 46.0 47 SW 3 G 23 29.80 1009.3 0.00
19 15:00 68.1 46.0 45 SSW 7 G 21 29.83 1010.3 0.00
19 14:00 65.1 46.0 66.7 53.5 50 S 9 G 19 29.88 1012.0 0.00
19 13:00 66.6 46.3 48 SSW 6 G 20 29.90 1012.7 0.00
19 12:00 65.0 48.0 54 SSW 6 G 19 29.94 1013.9 0.00
19 11:00 62.6 47.2 57 SSW 8 G 21 29.98 1015.2 0.00
19 10:00 60.7 47.6 62 S 8 G 22 30.01 1016.2 0.00
19 09:00 55.9 47.0 72 SSW 6 G 13 30.01 1016.4 0.00
19 08:00 53.5 46.1 55.5 52.4 76 SSW 3 G 12 30.04 1017.2 0.00
19 07:00 52.6 45.9 78 S 5 G 16 30.04 1017.4 0.00
19 06:00 53.0 46.0 77 SSW 5 G 11 30.06 1017.9 0.00
19 05:00 52.7 46.0 78 SSW 4 G 10 30.07 1018.3 0.00
19 04:00 54.6 46.8 75 S 1 G 12 30.08 1018.7 0.00
19 03:00 53.8 46.8 77 S 4 G 12 30.10 1019.2 0.00
19 02:00 53.6 46.6 54.7 49.1 77 S 0 G 4 30.11 1019.7 0.00
19 01:00 54.7 47.3 76 S 0 G 9 30.12 1020.1 0.00
19 00:00 51.3 45.7 81 S 0 G 10 30.13 1020.2 0.00
18 23:00 51.5 45.9 81 SSW 2 G 10 30.13 1020.4 0.00
18 22:00 49.4 44.5 83 SSW 0 G 6 30.14 1020.7 0.00
18 21:00 51.4 44.1 76 SSW 0 G 6 30.15 1020.9 0.00
18 20:00 51.3 44.7 67.3 50.9 78 Calm 30.15 1021.0 0.00
18 19:00 51.9 44.9 77 SSW 0 G 5 30.15 1021.0 0.00
18 18:00 57.7 46.0 65 SSW 0 G 2 30.15 1020.9 0.00
18 17:00 65.6 46.5 50 SSW 2 G 8 30.14 1020.7 0.00
18 16:00 66.9 47.1 49 SSW 2 G 8 30.15 1021.1 0.00
18 15:00 66.1 46.9 50 SW 0 G 6 30.15 1021.1 0.00
18 14:00 64.5 48.0 64.8 43.7 55 SW 0 G 5 30.17 1021.6 0.00
18 13:00 62.9 48.4 59 W 3 G 7 30.19 1022.6 0.00
18 12:00 61.8 49.5 64 WSW 0 G 5 30.21 1023.0 0.00
18 11:00 58.4 48.3 69 WSW 0 G 8 30.20 1022.9 0.00
18 10:00 55.9 47.7 74 W 1 G 12 30.20 1022.9 0.00
18 09:00 48.0 42.5 81 SSW 2 G 7 30.19 1022.5 0.00

Data generated by WxSolution Version 1.9.0.6, Build 2017.01.14.


 
 
Current Radar Loop:

Copyright © WestfordWeather.net 2007-2017. All rights reserved.